Time;durP1;ratioP1;P1;durP2;ratioP2;P2;SDS_P1;SDS_P2;PMS_P1;PMS_P2;Temp;Humidity;BMP_temperature;BMP_pressure;BME280_temperature;BME280_humidity;BME280_pressure;Samples;Min_cycle;Max_cycle;Signal;HPM_P1;HPM_P2
2023/01/02 00:02:20;;;;;;;123.07;59.33;;;;;;;3.31;76.76;96505.38;4960067;28;20093;-78
2023/01/02 00:04:45;;;;;;;143.80;62.38;;;;;;;3.42;76.80;96512.69;4950320;28;20367;-78
2023/01/02 00:07:11;;;;;;;133.88;60.38;;;;;;;3.66;76.63;96554.13;4958626;28;20047;-78
2023/01/02 00:09:36;;;;;;;114.82;56.08;;;;;;;3.60;76.77;96527.84;4942760;28;20124;-78
2023/01/02 00:12:02;;;;;;;123.53;57.00;;;;;;;3.36;76.91;96498.53;4942398;28;20208;-78
2023/01/02 00:14:28;;;;;;;115.80;55.03;;;;;;;3.87;76.72;96582.06;4942567;28;20034;-78
2023/01/02 00:16:53;;;;;;;120.10;56.63;;;;;;;4.03;76.69;96601.91;4960113;28;20134;-78
2023/01/02 00:19:18;;;;;;;113.80;53.92;;;;;;;3.83;76.39;96568.50;4940770;28;20035;-78
2023/01/02 00:21:44;;;;;;;120.90;56.75;;;;;;;3.79;76.73;96569.91;4941751;28;20043;-78
2023/01/02 00:24:09;;;;;;;116.60;57.10;;;;;;;3.73;76.69;96556.78;4959859;28;20112;-79
2023/01/02 00:26:35;;;;;;;127.15;57.15;;;;;;;4.09;76.91;96624.72;4960139;28;20042;-78
2023/01/02 00:29:01;;;;;;;123.90;54.70;;;;;;;3.75;76.95;96560.81;4942718;28;20031;-78
2023/01/02 00:31:26;;;;;;;121.97;57.25;;;;;;;4.01;76.86;96606.53;4942259;28;20069;-78
2023/01/02 00:33:52;;;;;;;107.53;52.70;;;;;;;4.07;76.73;96613.59;4959387;28;20114;-78
2023/01/02 00:36:17;;;;;;;115.03;53.67;;;;;;;4.06;76.75;96614.59;4942014;28;20581;-78
2023/01/02 00:38:42;;;;;;;113.97;53.70;;;;;;;4.07;76.68;96603.09;4942059;28;20073;-79
2023/01/02 00:41:08;;;;;;;114.57;53.47;;;;;;;3.53;76.64;96524.41;4942437;28;20038;-78
2023/01/02 00:43:34;;;;;;;113.47;53.17;;;;;;;4.03;76.70;96609.78;4960338;28;20110;-78
2023/01/02 00:46:00;;;;;;;117.88;53.92;;;;;;;3.94;76.64;96596.00;4942864;28;20501;-78
2023/01/02 00:48:25;;;;;;;108.60;53.72;;;;;;;3.61;76.34;96547.84;4959411;28;20031;-78
2023/01/02 00:50:51;;;;;;;112.13;55.97;;;;;;;4.00;76.68;96610.16;4942676;28;20051;-78
2023/01/02 00:53:16;;;;;;;108.47;51.95;;;;;;;3.33;76.42;96509.41;4942279;28;20041;-78
2023/01/02 00:55:45;;;;;;;111.05;53.55;;;;;;;3.43;76.54;96530.81;4943844;28;20146;-78
2023/01/02 00:58:12;;;;;;;116.95;55.63;;;;;;;3.67;76.70;96568.03;4959753;28;20047;-78
2023/01/02 01:00:37;;;;;;;106.93;52.05;;;;;;;3.41;76.55;96527.59;4941783;28;20061;-79
2023/01/02 01:03:03;;;;;;;113.88;53.70;;;;;;;3.78;76.57;96580.63;4959894;28;20069;-78
2023/01/02 01:05:29;;;;;;;132.32;56.83;;;;;;;3.62;76.58;96568.63;4959293;28;20476;-79
2023/01/02 01:07:55;;;;;;;96.40;47.00;;;;;;;3.75;76.82;96609.84;4960049;28;20050;-78
2023/01/02 01:10:22;;;;;;;86.53;40.42;;;;;;;3.41;76.61;96543.34;4941751;28;20042;-78
2023/01/02 01:12:48;;;;;;;92.85;42.83;;;;;;;3.58;76.62;96564.00;4941401;28;20041;-77
2023/01/02 01:15:13;;;;;;;96.47;46.45;;;;;;;3.09;77.15;96487.13;4947722;28;20039;-77
2023/01/02 01:17:39;;;;;;;96.07;43.40;;;;;;;3.45;76.99;96551.63;4959314;28;20513;-78
2023/01/02 01:20:05;;;;;;;96.85;46.72;;;;;;;3.50;76.79;96544.00;4959619;28;20046;-78
2023/01/02 01:22:30;;;;;;;102.93;46.55;;;;;;;3.53;76.62;96551.44;4958750;28;20577;-78
2023/01/02 01:24:56;;;;;;;99.50;48.53;;;;;;;2.96;76.65;96462.66;4960016;28;20069;-78
2023/01/02 01:27:21;;;;;;;106.35;52.47;;;;;;;3.68;76.75;96586.22;4958561;28;20323;-78
2023/01/02 01:29:46;;;;;;;109.80;53.33;;;;;;;3.23;76.14;96508.97;4959960;28;20125;-78
2023/01/02 01:32:12;;;;;;;126.05;60.40;;;;;;;2.99;76.37;96470.94;4962815;28;20580;-78
2023/01/02 01:34:37;;;;;;;133.45;64.65;;;;;;;3.41;77.33;96539.91;4944957;28;20121;-78
2023/01/02 01:37:03;;;;;;;136.02;64.80;;;;;;;3.09;76.87;96491.56;4945502;28;20135;-78
2023/01/02 01:39:28;;;;;;;125.72;59.95;;;;;;;3.54;76.73;96552.25;4944975;28;20138;-78
2023/01/02 01:41:54;;;;;;;123.63;58.35;;;;;;;3.09;76.56;96499.41;4962489;28;20038;-78
2023/01/02 01:44:44;;;;;;;152.35;70.50;;;;;;;3.74;76.68;96598.53;4946040;28;20365;-78
2023/01/02 01:47:31;;;;;;;152.45;70.00;;;;;;;3.72;76.52;96603.19;4944800;28;20039;-78
2023/01/02 01:50:23;;;;;;;151.27;70.43;;;;;;;3.71;76.55;96590.28;4955815;28;20026;-78
2023/01/02 01:53:02;;;;;;;;;;;;;;;3.67;76.56;96595.09;4938795;28;20130;-78
2023/01/02 01:55:34;;;;;;;159.93;73.85;;;;;;;3.59;76.53;96594.44;4962724;28;20471;-78
2023/01/02 01:58:04;;;;;;;154.57;74.50;;;;;;;3.52;76.77;96575.25;4944964;28;20046;-77
2023/01/02 02:00:31;;;;;;;170.15;78.15;;;;;;;2.87;76.53;96482.19;4944440;28;20041;-78
2023/01/02 02:03:00;;;;;;;168.23;78.60;;;;;;;2.81;76.34;96475.09;4947985;28;21024;-78
2023/01/02 02:05:29;;;;;;;171.23;79.10;;;;;;;3.26;76.40;96550.53;4961577;28;20087;-78
2023/01/02 02:08:05;;;;;;;170.63;78.35;;;;;;;3.47;76.86;96583.72;4961997;28;20039;-78
2023/01/02 02:10:31;;;;;;;167.07;78.82;;;;;;;3.20;76.67;96548.69;4962339;28;20116;-78
2023/01/02 02:12:56;;;;;;;171.25;80.95;;;;;;;3.48;76.81;96586.16;4943911;28;20517;-78
2023/01/02 02:15:34;;;;;;;171.30;81.25;;;;;;;3.20;76.81;96546.06;4962191;28;20047;-78
2023/01/02 02:18:46;;;;;;;180.80;81.35;;;;;;;3.47;76.64;96581.91;4961487;28;20051;-78
2023/01/02 02:21:49;;;;;;;164.70;79.35;;;;;;;3.43;76.66;96588.53;4961606;28;20049;-78
2023/01/02 02:24:36;;;;;;;172.60;80.85;;;;;;;3.45;76.42;96583.91;4954079;28;20136;-78
2023/01/02 02:27:23;;;;;;;173.00;82.25;;;;;;;3.41;76.52;96589.72;4962218;28;20066;-78
2023/01/02 02:30:01;;;;;;;167.80;81.07;;;;;;;3.36;76.42;96589.50;4943483;28;20121;-78
2023/01/02 02:32:48;;;;;;;177.77;82.93;;;;;;;3.35;76.42;96587.91;4943870;28;20429;-78
2023/01/02 02:35:24;;;;;;;180.95;83.63;;;;;;;3.35;76.69;96595.75;4951737;28;20547;-78
2023/01/02 02:37:55;;;;;;;177.77;81.78;;;;;;;2.90;76.37;96531.59;4950562;28;20592;-78
2023/01/02 02:40:55;;;;;;;177.98;83.38;;;;;;;3.26;77.09;96589.84;4944007;28;20054;-78
2023/01/02 02:43:42;;;;;;;183.13;83.72;;;;;;;3.29;76.79;96586.03;4942077;28;20042;-79
2023/01/02 02:46:36;;;;;;;180.68;84.35;;;;;;;3.27;76.64;96591.47;4959360;28;20489;-80
2023/01/02 02:49:13;;;;;;;186.27;85.22;;;;;;;3.18;76.59;96587.41;4914682;28;20522;-80
2023/01/02 02:51:47;;;;;;;181.73;83.68;;;;;;;2.78;76.84;96501.66;4958719;28;20039;-80
2023/01/02 02:54:30;;;;;;;175.35;85.40;;;;;;;2.67;76.89;96487.31;4958956;28;20593;-80
2023/01/02 02:56:56;;;;;;;177.88;84.63;;;;;;;2.14;76.64;96408.38;4941151;28;20035;-80
2023/01/02 02:59:22;;;;;;;180.75;82.65;;;;;;;3.02;76.98;96551.81;4960809;28;20058;-78
2023/01/02 03:01:47;;;;;;;178.63;82.70;;;;;;;3.18;76.89;96573.47;4961104;28;20445;-79
2023/01/02 03:04:21;;;;;;;191.13;89.07;;;;;;;2.60;77.57;96510.00;4961401;28;20109;-79
2023/01/02 03:07:04;;;;;;;172.82;82.10;;;;;;;2.17;77.21;96434.19;4927704;28;20447;-79
2023/01/02 03:09:41;;;;;;;173.25;74.93;;;;;;;3.03;77.38;96563.91;4943341;28;20034;-79
2023/01/02 03:12:56;;;;;;;152.95;72.80;;;;;;;2.72;77.26;96492.78;4943725;28;20145;-79
2023/01/02 03:15:30;;;;;;;152.43;69.45;;;;;;;2.31;77.39;96429.84;4944207;28;20043;-79
2023/01/02 03:18:18;;;;;;;152.77;71.70;;;;;;;3.09;77.68;96552.66;4943794;28;20106;-79
2023/01/02 03:20:51;;;;;;;153.55;71.10;;;;;;;2.83;77.79;96512.38;4944006;28;20042;-79
2023/01/02 03:23:23;;;;;;;154.07;73.68;;;;;;;3.16;77.42;96555.31;4943654;28;20046;-79
2023/01/02 03:25:48;;;;;;;155.55;73.32;;;;;;;2.50;77.38;96454.56;4943082;28;20256;-79
2023/01/02 03:28:17;;;;;;;155.27;73.43;;;;;;;3.02;77.45;96551.00;4943902;28;20054;-79
2023/01/02 03:30:46;;;;;;;158.43;77.38;;;;;;;2.21;77.16;96421.53;4961479;28;20047;-78
2023/01/02 03:33:15;;;;;;;192.55;90.90;;;;;;;2.71;77.31;96488.53;4960094;28;20065;-78
2023/01/02 03:35:45;;;;;;;184.35;87.03;;;;;;;2.97;76.79;96543.72;4942597;28;20030;-78
2023/01/02 03:38:19;;;;;;;233.13;106.25;;;;;;;2.74;76.79;96498.63;4942603;28;20055;-78
2023/01/02 03:40:49;;;;;;;235.13;102.50;;;;;;;2.98;76.59;96555.00;4942766;28;20169;-78
2023/01/02 03:43:21;;;;;;;225.63;99.03;;;;;;;2.43;76.71;96472.84;4960796;28;20035;-78
2023/01/02 03:45:57;;;;;;;;;;;;;;;3.04;76.87;96583.88;4962006;28;20034;-78
2023/01/02 03:48:28;;;;;;;303.40;115.80;;;;;;;2.83;76.87;96544.63;4958489;28;20352;-78
2023/01/02 03:50:58;;;;;;;288.60;114.82;;;;;;;2.62;76.83;96519.28;4949191;28;20490;-78
2023/01/02 03:53:25;;;;;;;291.13;115.40;;;;;;;2.44;76.91;96486.75;4941782;28;20051;-78
2023/01/02 03:55:57;;;;;;;295.50;121.60;;;;;;;2.87;77.27;96556.34;4959281;28;20051;-78
2023/01/02 03:58:44;;;;;;;294.30;121.88;;;;;;;3.15;77.07;96594.81;4954611;28;20133;-78
2023/01/02 04:01:37;;;;;;;312.58;123.70;;;;;;;3.13;76.96;96591.59;4960454;28;20445;-78
2023/01/02 04:04:13;;;;;;;315.30;128.77;;;;;;;2.84;77.01;96548.03;4936750;29;20110;-78
2023/01/02 04:06:44;;;;;;;303.65;123.97;;;;;;;2.69;77.07;96535.06;4947484;28;20031;-78
2023/01/02 04:09:16;;;;;;;294.73;119.13;;;;;;;2.82;77.22;96550.88;4959978;28;20030;-78
2023/01/02 04:11:46;;;;;;;283.17;118.00;;;;;;;2.36;77.61;96499.97;4950408;28;20148;-78
2023/01/02 04:14:41;;;;;;;274.80;110.35;;;;;;;2.59;77.47;96526.75;4942060;28;20042;-78
2023/01/02 04:17:07;;;;;;;248.10;99.72;;;;;;;3.10;77.62;96603.28;4942311;28;20039;-78
2023/01/02 04:20:01;;;;;;;254.18;104.53;;;;;;;2.64;77.82;96533.03;4956859;28;20078;-78
2023/01/02 04:22:38;;;;;;;266.40;106.25;;;;;;;2.28;77.66;96482.59;4928252;28;20039;-78
2023/01/02 04:25:12;;;;;;;265.05;106.57;;;;;;;2.71;77.29;96549.59;4942567;28;20046;-78
2023/01/02 04:27:52;;;;;;;266.48;107.07;;;;;;;2.72;77.23;96548.59;4942316;28;20031;-78
2023/01/02 04:30:18;;;;;;;269.35;106.65;;;;;;;2.97;77.10;96588.28;4942507;28;20497;-78
2023/01/02 04:32:45;;;;;;;280.05;106.18;;;;;;;3.00;77.30;96597.53;4942018;28;20034;-78
2023/01/02 04:35:15;;;;;;;274.35;107.53;;;;;;;2.80;77.41;96565.97;4959355;28;20093;-78
2023/01/02 04:37:43;;;;;;;278.05;106.88;;;;;;;3.06;77.40;96617.75;4958603;28;20058;-78
2023/01/02 04:40:16;;;;;;;280.27;103.47;;;;;;;2.72;77.14;96566.13;4941871;28;20561;-78
2023/01/02 04:42:41;;;;;;;286.83;103.40;;;;;;;2.60;77.17;96565.81;4959389;28;20034;-79
2023/01/02 04:45:07;;;;;;;261.55;99.35;;;;;;;2.49;77.62;96549.81;4941769;28;20488;-78
2023/01/02 04:47:33;;;;;;;251.00;96.00;;;;;;;2.47;77.53;96550.00;4942332;28;20565;-78
2023/01/02 04:49:58;;;;;;;261.63;97.07;;;;;;;2.71;77.92;96601.16;4940987;28;20058;-77
2023/01/02 04:52:24;;;;;;;244.00;94.82;;;;;;;2.79;77.78;96622.00;4959049;28;20037;-78
2023/01/02 04:54:49;;;;;;;242.05;94.55;;;;;;;2.35;77.78;96535.00;4941891;28;20049;-78
2023/01/02 04:57:14;;;;;;;245.77;96.65;;;;;;;2.11;77.82;96513.47;4959439;28;20035;-78
2023/01/02 04:59:40;;;;;;;241.05;93.28;;;;;;;2.17;77.89;96530.22;4959594;28;20477;-78
2023/01/02 05:02:05;;;;;;;245.85;90.65;;;;;;;2.35;78.11;96554.16;4942053;28;20030;-78
2023/01/02 05:04:31;;;;;;;217.07;91.97;;;;;;;1.20;77.94;96374.81;4959596;28;21035;-78
2023/01/02 05:06:56;;;;;;;217.80;87.57;;;;;;;2.55;78.42;96596.19;4944770;28;20035;-78
2023/01/02 05:09:21;;;;;;;224.75;89.55;;;;;;;2.31;78.19;96561.56;4962221;28;20039;-78
2023/01/02 05:11:47;;;;;;;222.65;86.97;;;;;;;2.63;78.54;96611.78;4944820;28;20073;-78
2023/01/02 05:14:12;;;;;;;221.63;89.82;;;;;;;2.49;78.47;96581.25;4945417;28;20141;-78
2023/01/02 05:16:38;;;;;;;211.55;85.43;;;;;;;2.45;77.65;96582.59;4944993;28;20043;-78
2023/01/02 05:19:03;;;;;;;217.02;86.13;;;;;;;2.46;78.03;96590.28;4945167;28;20461;-78
2023/01/02 05:24:13;;;;;;;205.38;86.93;;;;;;;2.20;77.74;96529.84;4963728;28;20160;-79
2023/01/02 05:26:38;;;;;;;216.77;84.53;;;;;;;1.79;77.52;96472.09;4963794;28;20039;-79
2023/01/02 05:29:03;;;;;;;211.60;88.00;;;;;;;2.14;77.80;96520.09;4962927;28;20101;-78
2023/01/02 05:31:29;;;;;;;208.15;84.55;;;;;;;2.48;77.73;96587.47;4945088;28;20038;-78
2023/01/02 05:33:57;;;;;;;205.05;84.00;;;;;;;2.66;77.66;96611.41;4963436;28;20039;-79
2023/01/02 05:36:24;;;;;;;205.90;81.43;;;;;;;2.24;77.56;96531.88;4964037;28;20046;-79
2023/01/02 05:38:51;;;;;;;200.05;81.63;;;;;;;2.35;77.50;96567.22;4946219;28;20034;-79
2023/01/02 05:41:17;;;;;;;184.57;79.40;;;;;;;2.27;77.78;96535.94;4946239;28;20046;-79
2023/01/02 05:43:42;;;;;;;186.40;79.63;;;;;;;2.24;77.20;96526.66;4945226;28;20030;-79
2023/01/02 05:46:17;;;;;;;189.70;80.35;;;;;;;2.39;77.31;96571.09;4962889;28;20041;-79
2023/01/02 05:48:43;;;;;;;194.70;79.95;;;;;;;2.66;77.16;96614.84;4963126;28;20047;-79
2023/01/02 05:51:11;;;;;;;196.68;80.65;;;;;;;2.50;77.06;96588.09;4945215;28;20042;-79
2023/01/02 05:53:37;;;;;;;212.05;86.32;;;;;;;2.10;77.28;96526.72;4963389;28;20529;-79
2023/01/02 05:56:10;;;;;;;225.07;92.50;;;;;;;2.51;77.14;96589.72;4946485;28;20592;-79
2023/01/02 05:58:37;;;;;;;212.40;87.07;;;;;;;2.13;77.24;96528.97;4943761;28;20046;-79
2023/01/02 06:01:09;;;;;;;217.13;88.72;;;;;;;2.67;77.07;96618.28;4944816;28;20057;-79
2023/01/02 06:03:35;;;;;;;226.15;94.57;;;;;;;2.70;76.96;96618.69;4963527;28;20042;-79
2023/01/02 06:06:08;;;;;;;228.05;95.10;;;;;;;2.58;76.76;96601.88;4945573;28;20043;-79
2023/01/02 06:08:34;;;;;;;235.18;92.35;;;;;;;2.00;76.56;96545.34;4944955;28;20034;-79
2023/01/02 06:11:01;;;;;;;203.98;90.82;;;;;;;2.19;76.48;96589.22;4962089;28;20474;-79
2023/01/02 06:13:28;;;;;;;183.82;82.80;;;;;;;1.72;75.96;96506.03;4962285;28;20039;-79
2023/01/02 06:15:55;;;;;;;181.27;79.95;;;;;;;2.23;76.16;96619.25;4945313;28;20049;-79
2023/01/02 06:18:21;;;;;;;179.90;78.50;;;;;;;2.22;75.79;96615.03;4960102;28;20684;-79
2023/01/02 06:20:46;;;;;;;164.45;72.25;;;;;;;1.86;76.08;96581.03;4960062;28;20385;-79
2023/01/02 06:23:12;;;;;;;158.70;66.18;;;;;;;2.00;76.04;96610.75;4962784;28;20046;-79
2023/01/02 06:25:37;;;;;;;150.70;66.68;;;;;;;1.44;75.86;96503.34;4944226;28;20577;-79
2023/01/02 06:28:03;;;;;;;153.45;66.82;;;;;;;2.37;75.67;96643.75;4944621;28;20153;-79
2023/01/02 06:30:28;;;;;;;143.00;61.80;;;;;;;1.91;75.20;96580.47;4962171;28;20518;-79
2023/01/02 06:32:55;;;;;;;130.75;57.65;;;;;;;2.12;75.19;96621.56;4943983;28;20568;-79
2023/01/02 06:35:20;;;;;;;132.80;58.65;;;;;;;2.20;76.10;96658.09;4944102;28;20041;-79
2023/01/02 06:37:46;;;;;;;141.77;61.13;;;;;;;1.72;76.17;96576.66;4961841;28;20121;-79
2023/01/02 06:40:11;;;;;;;141.82;60.00;;;;;;;1.85;76.05;96596.91;4943778;28;20038;-79
2023/01/02 06:42:37;;;;;;;137.88;57.97;;;;;;;2.17;75.80;96651.41;4962123;28;20115;-79
2023/01/02 06:45:03;;;;;;;125.05;56.88;;;;;;;2.19;76.01;96670.38;4944460;28;20053;-79
2023/01/02 06:47:29;;;;;;;150.55;61.95;;;;;;;1.75;75.68;96581.53;4962038;28;20034;-79
2023/01/02 06:49:54;;;;;;;141.88;62.55;;;;;;;1.92;75.61;96603.03;4944277;28;20529;-79
2023/01/02 06:52:20;;;;;;;141.63;59.70;;;;;;;2.27;75.64;96653.75;4944098;28;20129;-79
2023/01/02 06:54:45;;;;;;;124.07;53.97;;;;;;;2.03;75.65;96622.69;4944049;28;20511;-79
2023/01/02 06:57:11;;;;;;;106.60;47.92;;;;;;;1.63;76.07;96563.88;4961983;28;20045;-79
2023/01/02 06:59:36;;;;;;;111.13;44.60;;;;;;;1.69;76.64;96565.75;4944006;28;20038;-79
2023/01/02 07:02:01;;;;;;;108.45;44.75;;;;;;;2.27;76.80;96651.94;4961388;28;20484;-79
2023/01/02 07:04:27;;;;;;;113.03;44.85;;;;;;;2.25;76.61;96637.41;4944125;28;20579;-79
2023/01/02 07:06:54;;;;;;;109.70;44.63;;;;;;;1.69;76.81;96537.78;4943679;28;20042;-79
2023/01/02 07:09:19;;;;;;;122.13;47.17;;;;;;;1.88;76.85;96562.53;4943622;28;20473;-78
2023/01/02 07:11:45;;;;;;;113.75;47.08;;;;;;;2.11;76.99;96589.34;4961830;28;20491;-79
2023/01/02 07:14:10;;;;;;;92.28;39.05;;;;;;;2.56;77.23;96658.06;4943370;28;20034;-79
2023/01/02 07:16:36;;;;;;;100.35;40.70;;;;;;;2.56;77.77;96651.00;4961864;28;20129;-79
2023/01/02 07:19:01;;;;;;;160.98;42.15;;;;;;;2.02;77.63;96564.28;4943520;28;20049;-79
2023/01/02 07:21:27;;;;;;;109.70;41.03;;;;;;;2.55;77.70;96648.56;4944147;28;20076;-79
2023/01/02 07:23:52;;;;;;;119.15;43.63;;;;;;;2.36;77.91;96605.50;4944143;28;20034;-79
2023/01/02 07:26:18;;;;;;;120.05;41.50;;;;;;;1.77;78.47;96502.84;4943502;28;20033;-79
2023/01/02 07:28:44;;;;;;;118.90;40.30;;;;;;;2.43;78.75;96600.34;4961078;28;20031;-79
2023/01/02 07:31:15;;;;;;;136.85;42.42;;;;;;;2.68;78.64;96631.16;4943865;28;20544;-79
2023/01/02 07:33:41;;;;;;;159.85;45.17;;;;;;;2.41;78.78;96576.94;4943898;28;20049;-79
2023/01/02 07:36:10;;;;;;;194.57;45.58;;;;;;;2.98;79.17;96658.00;4943826;28;20509;-79
2023/01/02 07:38:37;;;;;;;131.07;43.95;;;;;;;2.81;79.36;96630.47;4948805;28;20038;-79
2023/01/02 07:41:02;;;;;;;133.38;45.47;;;;;;;2.60;79.55;96596.44;4962043;28;20039;-79
2023/01/02 07:43:28;;;;;;;165.93;45.25;;;;;;;3.09;79.15;96660.13;4961035;28;20555;-79
2023/01/02 07:45:54;;;;;;;137.23;54.13;;;;;;;2.94;80.25;96659.41;4961389;28;20042;-79
2023/01/02 07:48:19;;;;;;;129.32;55.88;;;;;;;2.63;80.01;96598.69;4944161;28;20030;-79
2023/01/02 07:50:45;;;;;;;140.35;58.78;;;;;;;3.00;79.87;96634.25;4944299;28;20034;-79
2023/01/02 07:53:10;;;;;;;149.77;60.97;;;;;;;2.83;79.36;96623.22;4943661;28;20084;-79
2023/01/02 07:55:36;;;;;;;159.05;60.10;;;;;;;2.18;79.21;96506.47;4944046;28;20054;-79
2023/01/02 07:58:01;;;;;;;166.45;58.70;;;;;;;2.39;80.16;96583.34;4944024;28;20691;-79
2023/01/02 08:00:27;;;;;;;161.20;58.45;;;;;;;2.82;80.83;96650.44;4958906;28;20045;-79
2023/01/02 08:02:53;;;;;;;170.45;57.95;;;;;;;2.92;80.02;96645.66;4961028;28;20073;-79
2023/01/02 08:05:20;;;;;;;172.25;59.50;;;;;;;2.79;79.67;96606.28;4961788;28;20065;-79
2023/01/02 08:07:45;;;;;;;163.13;58.85;;;;;;;3.25;79.57;96659.03;4942830;28;20050;-79
2023/01/02 08:10:12;;;;;;;164.88;57.30;;;;;;;3.05;79.68;96624.78;4960961;28;20034;-79
2023/01/02 08:12:38;;;;;;;162.20;59.67;;;;;;;3.33;79.60;96658.88;4942852;28;20067;-79
2023/01/02 08:15:04;;;;;;;153.93;56.83;;;;;;;3.31;79.46;96645.16;4960430;28;20097;-79
2023/01/02 08:17:30;;;;;;;144.52;54.53;;;;;;;3.34;79.21;96631.66;4961092;28;20031;-79
2023/01/02 08:19:56;;;;;;;139.23;55.13;;;;;;;3.07;79.45;96578.25;4959446;28;20046;-79
2023/01/02 08:22:21;;;;;;;142.70;56.17;;;;;;;2.97;79.38;96566.50;4957605;28;20517;-79
2023/01/02 08:24:47;;;;;;;137.30;55.28;;;;;;;3.17;78.93;96591.00;4960140;28;20121;-79
2023/01/02 08:27:12;;;;;;;127.68;55.33;;;;;;;3.39;78.95;96628.44;4943416;28;20480;-79
2023/01/02 08:29:37;;;;;;;129.77;52.20;;;;;;;3.19;78.95;96588.19;4960259;28;20034;-79
2023/01/02 08:32:03;;;;;;;136.15;56.58;;;;;;;3.47;79.37;96631.72;4944001;28;20110;-79
2023/01/02 08:34:29;;;;;;;123.10;52.50;;;;;;;3.41;79.48;96614.16;4943856;28;20031;-79
2023/01/02 08:36:54;;;;;;;123.22;53.17;;;;;;;3.22;79.49;96562.41;4942647;28;20580;-79
2023/01/02 08:39:19;;;;;;;130.63;55.40;;;;;;;3.73;79.57;96648.63;4962345;28;20125;-79
2023/01/02 08:41:45;;;;;;;128.50;51.47;;;;;;;3.05;80.34;96550.63;4965716;28;20053;-79
2023/01/02 08:44:10;;;;;;;144.75;57.05;;;;;;;3.35;80.19;96590.50;4965658;28;20105;-78
2023/01/02 08:46:36;;;;;;;137.63;58.92;;;;;;;3.15;80.72;96556.31;4947147;28;20057;-77
2023/01/02 08:49:01;;;;;;;176.57;70.00;;;;;;;2.81;80.59;96535.34;4946986;28;20035;-77
2023/01/02 08:51:27;;;;;;;242.55;94.07;;;;;;;3.34;80.29;96608.06;4946018;28;20066;-78
2023/01/02 08:53:52;;;;;;;292.45;110.60;;;;;;;3.38;80.13;96608.47;4964154;28;20539;-78
2023/01/02 08:56:22;;;;;;;273.00;107.47;;;;;;;3.43;80.31;96642.81;4945172;28;20069;-78
2023/01/02 08:58:59;;;;;;;270.73;99.32;;;;;;;3.46;80.22;96637.16;4945678;28;20517;-78
2023/01/02 09:01:27;;;;;;;237.80;89.30;;;;;;;3.47;80.00;96633.53;4946166;28;20042;-77
2023/01/02 09:03:52;;;;;;;182.10;76.00;;;;;;;3.13;80.92;96607.31;4964855;28;20039;-78
2023/01/02 09:06:19;;;;;;;186.80;77.00;;;;;;;2.94;80.93;96561.63;4946399;28;20057;-78
2023/01/02 09:08:44;;;;;;;181.25;78.65;;;;;;;2.68;81.53;96533.44;4962475;28;20046;-78
2023/01/02 09:11:16;;;;;;;209.88;85.32;;;;;;;3.10;81.81;96593.59;4963966;28;20031;-78
2023/01/02 09:13:42;;;;;;;;;;;;;;;3.43;81.34;96614.75;4928022;28;20027;-78
2023/01/02 09:16:08;;;;;;;202.57;80.43;;;;;;;3.45;81.68;96620.63;4945128;28;19932;-79
2023/01/02 09:18:34;;;;;;;199.63;78.85;;;;;;;3.40;82.12;96588.94;4945463;28;20042;-78
2023/01/02 09:20:59;;;;;;;182.05;77.97;;;;;;;3.76;81.33;96614.09;4946540;28;20034;-78
2023/01/02 09:23:25;;;;;;;201.90;81.00;;;;;;;3.86;80.75;96611.94;4949009;28;20038;-78
2023/01/02 09:25:50;;;;;;;192.25;81.15;;;;;;;3.29;80.84;96502.13;4963937;28;20502;-78
2023/01/02 09:28:16;;;;;;;194.90;80.28;;;;;;;3.99;81.24;96595.41;4962715;28;20433;-78
2023/01/02 09:30:41;;;;;;;193.32;77.57;;;;;;;3.86;80.93;96547.13;4962385;28;20046;-78
2023/01/02 09:33:07;;;;;;;173.75;74.80;;;;;;;4.01;80.53;96564.53;4962878;28;20049;-78
2023/01/02 09:35:34;;;;;;;151.10;68.43;;;;;;;3.97;80.82;96548.34;4944543;28;20517;-77
2023/01/02 09:37:59;;;;;;;149.75;65.60;;;;;;;3.79;81.11;96506.13;4961887;28;20085;-78
2023/01/02 09:40:25;;;;;;;148.50;62.70;;;;;;;3.75;80.52;96491.78;4944080;28;20404;-78
2023/01/02 09:42:51;;;;;;;138.20;60.13;;;;;;;4.41;80.40;96576.72;4961918;28;20114;-78
2023/01/02 09:45:17;;;;;;;135.77;58.97;;;;;;;4.50;80.36;96570.25;4944559;28;20114;-78
2023/01/02 09:47:45;;;;;;;117.35;56.15;;;;;;;4.40;80.23;96556.72;4961348;28;20445;-78
2023/01/02 09:50:27;;;;;;;136.70;62.53;;;;;;;4.50;79.75;96566.84;4961542;28;20271;-78
2023/01/02 09:52:56;;;;;;;157.90;62.30;;;;;;;4.55;79.93;96556.53;4961476;28;20047;-78
2023/01/02 09:55:42;;;;;;;141.38;64.00;;;;;;;4.34;79.68;96539.13;4961545;28;20070;-79
2023/01/02 09:58:32;;;;;;;155.90;66.55;;;;;;;4.30;79.40;96548.41;4961898;28;20122;-78
2023/01/02 10:00:59;;;;;;;167.02;70.47;;;;;;;4.10;79.76;96529.22;4943943;28;20181;-78
2023/01/02 10:03:27;;;;;;;160.18;73.05;;;;;;;4.22;80.04;96543.34;4944807;28;20541;-78
2023/01/02 10:05:55;;;;;;;165.43;72.40;;;;;;;4.10;80.29;96532.66;4942343;28;20039;-79
2023/01/02 10:08:27;;;;;;;156.40;69.28;;;;;;;4.15;80.44;96535.47;4960137;28;20046;-79
2023/01/02 10:11:11;;;;;;;171.05;71.10;;;;;;;4.28;80.21;96529.41;4962705;28;20035;-79
2023/01/02 10:14:00;;;;;;;151.63;68.22;;;;;;;4.32;80.68;96528.03;4944666;28;20157;-79
2023/01/02 10:16:31;;;;;;;180.93;74.20;;;;;;;4.45;79.93;96525.38;4917324;28;20157;-79
2023/01/02 10:19:01;;;;;;;163.80;70.32;;;;;;;4.44;80.49;96529.03;4944469;28;20037;-79
2023/01/02 10:21:31;;;;;;;177.60;73.85;;;;;;;4.46;80.08;96437.69;4944424;28;20117;-79
2023/01/02 10:24:18;;;;;;;164.52;72.35;;;;;;;5.60;79.65;96434.47;4962136;28;20035;-79
2023/01/02 10:26:52;;;;;;;150.93;69.68;;;;;;;7.01;75.58;96505.94;4962379;28;20066;-79
2023/01/02 10:30:05;;;;;;;149.32;67.50;;;;;;;7.88;70.55;96505.50;4944616;28;20033;-79
2023/01/02 10:32:33;;;;;;;144.73;68.45;;;;;;;8.04;69.00;96454.66;4882976;29;20559;-79
2023/01/02 10:35:04;;;;;;;146.20;69.30;;;;;;;9.05;66.41;96501.22;4952880;28;20058;-79
2023/01/02 10:37:30;;;;;;;133.98;65.13;;;;;;;9.06;64.77;96467.66;4944733;28;20042;-79
2023/01/02 10:39:56;;;;;;;131.35;65.85;;;;;;;9.43;63.94;96502.56;4944902;28;20541;-79
2023/01/02 10:42:23;;;;;;;132.45;63.63;;;;;;;9.55;63.21;96498.84;4944909;28;20244;-79
2023/01/02 10:44:49;;;;;;;132.93;66.82;;;;;;;9.15;63.07;96432.66;4962046;28;20639;-79
2023/01/02 10:47:35;;;;;;;125.80;64.03;;;;;;;9.45;63.47;96495.19;4943945;28;20030;-79
2023/01/02 10:50:19;;;;;;;130.35;66.97;;;;;;;9.47;62.68;96438.28;4944070;28;20069;-79
2023/01/02 10:52:50;;;;;;;130.73;67.53;;;;;;;10.12;61.69;96482.16;4962885;28;20460;-79
2023/01/02 10:55:38;;;;;;;129.25;64.38;;;;;;;10.17;60.89;96447.78;4962734;28;20125;-79
2023/01/02 10:58:19;;;;;;;132.70;66.55;;;;;;;10.49;60.77;96451.53;4962274;28;20043;-79
2023/01/02 11:00:45;;;;;;;121.60;65.05;;;;;;;10.75;59.53;96458.84;4944247;28;20085;-79
2023/01/02 11:03:15;;;;;;;126.82;64.03;;;;;;;10.92;59.21;96465.94;4961029;28;20577;-79
2023/01/02 11:05:52;;;;;;;132.70;67.63;;;;;;;10.94;59.19;96455.88;4961712;28;20038;-79
2023/01/02 11:08:21;;;;;;;143.13;69.20;;;;;;;10.94;59.23;96455.88;4943637;28;20189;-79
2023/01/02 11:10:48;;;;;;;140.95;73.00;;;;;;;10.96;59.20;96441.34;4961322;28;20034;-78
2023/01/02 11:13:16;;;;;;;142.88;71.45;;;;;;;10.69;58.91;96397.94;4961252;28;20418;-78
2023/01/02 11:15:56;;;;;;;140.48;70.35;;;;;;;10.59;59.27;96392.53;4961073;28;20077;-78
2023/01/02 11:18:31;;;;;;;127.53;70.95;;;;;;;10.40;59.48;96384.81;4943567;28;20042;-78
2023/01/02 11:21:03;;;;;;;133.35;72.85;;;;;;;10.31;59.58;96388.91;4961492;28;20046;-78
2023/01/02 11:23:34;;;;;;;132.57;69.90;;;;;;;10.25;60.05;96383.78;4943828;28;20039;-78
2023/01/02 11:26:01;;;;;;;131.02;67.85;;;;;;;10.12;60.14;96373.47;4960939;28;20049;-78
2023/01/02 11:28:33;;;;;;;130.48;69.18;;;;;;;10.28;60.41;96396.56;4942885;28;20039;-79
2023/01/02 11:31:10;;;;;;;128.65;70.72;;;;;;;10.34;60.49;96391.09;4961067;28;20097;-78
2023/01/02 11:33:36;;;;;;;149.55;71.47;;;;;;;10.40;61.13;96424.59;4942580;28;20465;-78